Time;durP1;ratioP1;P1;durP2;ratioP2;P2;SDS_P1;SDS_P2;PMS_P1;PMS_P2;Temp;Humidity;BMP_temperature;BMP_pressure;BME280_temperature;BME280_humidity;BME280_pressure;Samples;Min_cycle;Max_cycle;Signal;HPM_P1;HPM_P2
2023/07/29 00:01:03;;;;;;;6.35;0.90;;;18.20;99.90;;;;;;4986214;28;20042;-73
2023/07/29 00:03:38;;;;;;;2.65;1.38;;;18.20;99.90;;;;;;4985997;28;20038;-75
2023/07/29 00:06:06;;;;;;;1.45;0.82;;;18.20;99.90;;;;;;4982835;28;20062;-74
2023/07/29 00:08:35;;;;;;;3.03;1.00;;;18.20;99.90;;;;;;4985297;28;20031;-75
2023/07/29 00:11:03;;;;;;;1.10;0.80;;;18.20;99.90;;;;;;4986611;28;20359;-74
2023/07/29 00:13:29;;;;;;;3.70;1.23;;;18.20;99.90;;;;;;4979229;28;20088;-75
2023/07/29 00:15:58;;;;;;;2.33;1.00;;;18.20;99.90;;;;;;4969667;28;20160;-75
2023/07/29 00:18:23;;;;;;;2.63;0.90;;;18.20;99.90;;;;;;4988196;28;20034;-75
2023/07/29 00:20:52;;;;;;;3.40;0.98;;;18.20;99.90;;;;;;4990870;28;20049;-75
2023/07/29 00:23:21;;;;;;;2.25;1.20;;;18.20;99.90;;;;;;4990540;28;20022;-74
2023/07/29 00:25:46;;;;;;;1.42;1.05;;;18.20;99.90;;;;;;4983881;28;20035;-75
2023/07/29 00:28:12;;;;;;;3.53;1.40;;;18.30;99.90;;;;;;4987101;28;20034;-75
2023/07/29 00:30:38;;;;;;;5.18;1.55;;;18.30;99.90;;;;;;4979365;28;20171;-75
2023/07/29 00:33:03;;;;;;;3.28;1.20;;;18.20;99.90;;;;;;4974844;28;20097;-75
2023/07/29 00:35:29;;;;;;;2.15;1.35;;;18.20;99.90;;;;;;4985402;28;20053;-75
2023/07/29 00:37:57;;;;;;;4.72;1.58;;;18.20;99.90;;;;;;4984360;28;20041;-75
2023/07/29 00:40:23;;;;;;;1.90;1.30;;;18.30;99.90;;;;;;4972802;28;20038;-76
2023/07/29 00:42:50;;;;;;;1.60;1.05;;;18.30;99.90;;;;;;4972377;28;20030;-75
2023/07/29 00:45:16;;;;;;;3.53;1.48;;;18.30;99.90;;;;;;4981533;28;20025;-76
2023/07/29 00:47:43;;;;;;;3.17;1.23;;;18.30;99.90;;;;;;4983266;28;20038;-75
2023/07/29 00:50:11;;;;;;;3.78;1.20;;;18.30;99.90;;;;;;4985775;28;20076;-74
2023/07/29 00:52:37;;;;;;;4.90;1.50;;;18.30;99.90;;;;;;4978197;28;20045;-76
2023/07/29 00:55:03;;;;;;;1.95;1.13;;;18.30;99.90;;;;;;4976594;28;20415;-75
2023/07/29 00:57:30;;;;;;;2.35;1.48;;;18.30;99.90;;;;;;4982317;28;20034;-75
2023/07/29 00:59:56;;;;;;;3.40;1.00;;;18.30;99.90;;;;;;4985685;28;20031;-75
2023/07/29 01:02:21;;;;;;;3.65;1.77;;;18.30;99.90;;;;;;4987665;28;20039;-75
2023/07/29 01:04:56;;;;;;;3.05;1.50;;;18.30;99.90;;;;;;4984139;28;20038;-76
2023/07/29 01:07:25;;;;;;;1.10;0.80;;;18.30;99.90;;;;;;4979880;28;20028;-76
2023/07/29 01:09:55;;;;;;;1.60;1.00;;;18.30;99.90;;;;;;4985416;28;20105;-75
2023/07/29 01:12:28;;;;;;;3.08;1.30;;;18.30;99.90;;;;;;4987913;28;20547;-76
2023/07/29 01:15:34;;;;;;;2.92;1.50;;;18.30;99.90;;;;;;4989324;28;20026;-75
2023/07/29 01:18:18;;;;;;;1.58;1.15;;;18.40;99.90;;;;;;4978078;28;20062;-75
2023/07/29 01:20:45;;;;;;;4.63;1.48;;;18.40;99.90;;;;;;4981923;28;20131;-75
2023/07/29 01:23:11;;;;;;;3.03;1.52;;;18.40;99.90;;;;;;4985948;28;20034;-75
2023/07/29 01:25:37;;;;;;;1.67;1.42;;;18.40;99.90;;;;;;4987306;28;20036;-75
2023/07/29 01:28:02;;;;;;;2.58;1.60;;;18.40;99.90;;;;;;4986186;28;20033;-74
2023/07/29 01:30:37;;;;;;;2.13;1.27;;;18.40;99.90;;;;;;4985167;28;20099;-75
2023/07/29 01:33:25;;;;;;;4.95;1.73;;;18.40;99.90;;;;;;4985873;28;20117;-75
2023/07/29 01:35:58;;;;;;;1.75;1.40;;;18.40;99.90;;;;;;4987180;28;20026;-74
2023/07/29 01:38:44;;;;;;;3.72;1.23;;;18.40;99.90;;;;;;4985169;28;20034;-75
2023/07/29 01:41:10;;;;;;;2.78;1.40;;;18.50;99.90;;;;;;4991055;28;20039;-75
2023/07/29 01:43:42;;;;;;;3.38;1.40;;;18.40;99.90;;;;;;4987874;28;20038;-75
2023/07/29 01:46:10;;;;;;;1.90;1.15;;;18.40;99.90;;;;;;4989162;28;20061;-75
2023/07/29 01:48:35;;;;;;;2.10;1.40;;;18.40;99.90;;;;;;4987258;28;20045;-75
2023/07/29 01:51:01;;;;;;;2.13;1.40;;;18.40;99.90;;;;;;4983664;28;20023;-75
2023/07/29 01:53:27;;;;;;;2.90;1.50;;;18.40;99.90;;;;;;4982609;28;20049;-75
2023/07/29 01:55:52;;;;;;;1.80;1.50;;;18.40;99.90;;;;;;4987781;28;20053;-75
2023/07/29 01:58:18;;;;;;;2.38;1.30;;;18.40;99.90;;;;;;4986786;28;20038;-75
2023/07/29 02:00:43;;;;;;;3.67;1.60;;;18.40;99.90;;;;;;4988686;28;20030;-75
2023/07/29 02:03:09;;;;;;;3.33;1.52;;;18.40;99.90;;;;;;4988512;28;20034;-75
2023/07/29 02:05:34;;;;;;;3.30;1.92;;;18.40;99.90;;;;;;4987026;28;20546;-76
2023/07/29 02:08:01;;;;;;;2.35;1.80;;;18.40;99.90;;;;;;4983899;28;20607;-76
2023/07/29 02:10:27;;;;;;;2.90;1.90;;;18.40;99.90;;;;;;4988349;28;20118;-76
2023/07/29 02:12:53;;;;;;;2.67;1.92;;;18.30;99.90;;;;;;4985708;28;20026;-76
2023/07/29 02:15:18;;;;;;;2.40;1.60;;;18.30;99.90;;;;;;4984616;28;20117;-77
2023/07/29 02:17:44;;;;;;;1.92;1.70;;;18.30;99.90;;;;;;4986807;28;20038;-76
2023/07/29 02:20:10;;;;;;;3.13;1.75;;;18.30;99.90;;;;;;4982846;28;20496;-76
2023/07/29 02:22:36;;;;;;;2.58;1.50;;;18.20;99.90;;;;;;4984532;28;20489;-76
2023/07/29 02:25:02;;;;;;;3.70;1.67;;;18.20;99.90;;;;;;4983663;28;20081;-76
2023/07/29 02:27:28;;;;;;;2.28;1.63;;;18.20;99.90;;;;;;4981819;28;20070;-76
2023/07/29 02:29:54;;;;;;;4.07;1.73;;;18.20;99.90;;;;;;4984349;28;20026;-76
2023/07/29 02:32:21;;;;;;;3.25;1.52;;;18.10;99.90;;;;;;4985768;28;20121;-76
2023/07/29 02:34:46;;;;;;;2.53;1.58;;;18.10;99.90;;;;;;4986679;28;20080;-76
2023/07/29 02:37:12;;;;;;;3.83;1.48;;;18.10;99.90;;;;;;4985900;28;20038;-76
2023/07/29 02:39:38;;;;;;;4.15;1.65;;;18.10;99.90;;;;;;4986664;28;20049;-76
2023/07/29 02:42:04;;;;;;;3.97;1.75;;;18.00;99.90;;;;;;4984340;28;20027;-76
2023/07/29 02:44:29;;;;;;;2.60;1.40;;;18.00;99.90;;;;;;4980424;23;20138;-77
2023/07/29 02:46:55;;;;;;;3.75;1.85;;;18.00;99.90;;;;;;4953384;28;20020;-77
2023/07/29 02:49:22;;;;;;;3.03;1.50;;;18.00;99.90;;;;;;4957407;28;20027;-78
2023/07/29 02:51:47;;;;;;;2.45;1.80;;;18.00;99.90;;;;;;4977655;28;20058;-78
2023/07/29 02:54:13;;;;;;;3.17;1.50;;;18.00;99.90;;;;;;4954481;28;20027;-77
2023/07/29 02:56:38;;;;;;;1.55;1.25;;;18.00;99.90;;;;;;4958413;28;20397;-77
2023/07/29 02:59:04;;;;;;;2.80;1.52;;;18.10;99.90;;;;;;4954340;28;20031;-78
2023/07/29 03:01:30;;;;;;;2.58;1.50;;;18.10;99.90;;;;;;4953116;28;20371;-76
2023/07/29 03:03:56;;;;;;;3.83;1.75;;;18.10;99.90;;;;;;4952936;28;20078;-77
2023/07/29 03:06:22;;;;;;;1.77;1.23;;;18.10;99.90;;;;;;4952045;28;20035;-78
2023/07/29 03:08:47;;;;;;;2.85;1.30;;;18.20;99.90;;;;;;4954050;28;20023;-78
2023/07/29 03:11:15;;;;;;;2.38;1.55;;;18.20;99.90;;;;;;4953844;28;20030;-77
2023/07/29 03:13:41;;;;;;;3.90;1.60;;;18.20;99.90;;;;;;4952876;28;20063;-78
2023/07/29 03:16:15;;;;;;;2.22;1.85;;;18.10;99.90;;;;;;4950013;28;20023;-77
2023/07/29 03:18:42;;;;;;;3.65;2.33;;;18.10;99.90;;;;;;4953917;28;20054;-78
2023/07/29 03:21:09;;;;;;;2.47;1.65;;;18.10;99.90;;;;;;4949647;28;20061;-77
2023/07/29 03:23:35;;;;;;;6.55;2.63;;;18.10;99.90;;;;;;4950766;28;20036;-78
2023/07/29 03:26:04;;;;;;;4.03;2.13;;;18.10;99.90;;;;;;4954676;28;20146;-78
2023/07/29 03:28:32;;;;;;;4.32;2.35;;;18.00;99.90;;;;;;4958506;28;20031;-78
2023/07/29 03:30:57;;;;;;;4.38;2.92;;;18.10;99.90;;;;;;4951713;28;20095;-78
2023/07/29 03:33:25;;;;;;;4.97;2.50;;;18.00;99.90;;;;;;4968449;28;20380;-78
2023/07/29 03:35:50;;;;;;;4.53;3.40;;;18.10;99.90;;;;;;4949511;28;20494;-79
2023/07/29 03:38:16;;;;;;;4.78;3.15;;;18.00;99.90;;;;;;4956065;28;20028;-78
2023/07/29 03:40:42;;;;;;;5.25;2.70;;;18.00;99.90;;;;;;4956017;28;20031;-78
2023/07/29 03:43:08;;;;;;;3.65;2.35;;;18.10;99.90;;;;;;4957821;28;20046;-78
2023/07/29 03:45:34;;;;;;;4.15;2.50;;;18.00;99.90;;;;;;4956482;28;20035;-77
2023/07/29 03:48:00;;;;;;;3.80;2.25;;;18.10;99.90;;;;;;4954969;28;20030;-77
2023/07/29 03:50:26;;;;;;;4.40;2.58;;;18.10;99.90;;;;;;4951040;28;20019;-77
2023/07/29 03:52:52;;;;;;;4.65;2.47;;;18.00;99.90;;;;;;4953198;28;20027;-79
2023/07/29 03:55:18;;;;;;;5.82;2.50;;;18.00;99.90;;;;;;4956219;28;20338;-77
2023/07/29 03:57:43;;;;;;;5.03;2.42;;;18.00;99.90;;;;;;4953882;28;20035;-77
2023/07/29 04:00:10;;;;;;;5.78;2.30;;;18.00;99.90;;;;;;4955864;28;20572;-77
2023/07/29 04:02:37;;;;;;;3.50;2.03;;;18.00;99.90;;;;;;4957797;28;20027;-77
2023/07/29 04:05:03;;;;;;;3.60;1.75;;;18.00;99.90;;;;;;4954164;28;20556;-77
2023/07/29 04:07:30;;;;;;;2.70;1.60;;;18.00;99.90;;;;;;4952440;28;21003;-77
2023/07/29 04:09:56;;;;;;;3.80;2.20;;;17.90;99.90;;;;;;4953166;28;20106;-76
2023/07/29 04:12:22;;;;;;;3.70;1.40;;;18.00;99.90;;;;;;4956065;28;20034;-77
2023/07/29 04:14:48;;;;;;;3.40;1.80;;;17.90;99.90;;;;;;4955051;28;20023;-78
2023/07/29 04:17:13;;;;;;;5.05;1.20;;;17.90;99.90;;;;;;4961271;28;20027;-78
2023/07/29 04:19:39;;;;;;;2.63;1.70;;;17.90;99.90;;;;;;4951542;28;20109;-76
2023/07/29 04:22:05;;;;;;;2.38;1.45;;;18.00;99.90;;;;;;4951295;28;20031;-77
2023/07/29 04:24:30;;;;;;;2.28;1.70;;;18.00;99.90;;;;;;4951528;28;20035;-77
2023/07/29 04:26:56;;;;;;;3.05;1.55;;;18.00;99.90;;;;;;4950496;28;20019;-77
2023/07/29 04:29:22;;;;;;;2.33;1.25;;;18.00;99.90;;;;;;4948588;28;20082;-78
2023/07/29 04:31:51;;;;;;;4.15;1.58;;;18.00;99.90;;;;;;4950706;28;20102;-79
2023/07/29 04:34:18;;;;;;;3.50;1.60;;;18.00;99.90;;;;;;4956033;28;20024;-78
2023/07/29 04:36:45;;;;;;;5.13;1.77;;;18.00;99.90;;;;;;4955961;28;20038;-78
2023/07/29 04:39:10;;;;;;;2.72;1.80;;;18.00;99.90;;;;;;4955479;28;20027;-78
2023/07/29 04:41:36;;;;;;;5.13;2.20;;;18.10;99.90;;;;;;4955464;28;20063;-78
2023/07/29 04:44:02;;;;;;;6.70;2.65;;;18.10;99.90;;;;;;4954961;28;20045;-78
2023/07/29 04:46:27;;;;;;;3.78;2.28;;;18.00;99.90;;;;;;4955663;28;20023;-79
2023/07/29 04:48:53;;;;;;;3.05;1.90;;;18.10;99.90;;;;;;4955986;28;20711;-77
2023/07/29 04:51:18;;;;;;;5.63;2.08;;;18.10;99.90;;;;;;4956648;28;20110;-79
2023/07/29 04:53:44;;;;;;;2.17;1.50;;;18.10;99.90;;;;;;4952506;28;20031;-77
2023/07/29 04:56:09;;;;;;;3.97;1.73;;;18.20;99.90;;;;;;4957532;28;20053;-79
2023/07/29 04:58:35;;;;;;;2.60;1.20;;;18.20;99.90;;;;;;4953007;28;20035;-78
2023/07/29 05:01:02;;;;;;;2.63;1.55;;;18.30;99.90;;;;;;4951924;28;20494;-79
2023/07/29 05:03:28;;;;;;;3.20;1.60;;;18.20;99.90;;;;;;4954935;28;20023;-78
2023/07/29 05:05:55;;;;;;;3.95;1.75;;;18.20;99.90;;;;;;4958512;28;20115;-79
2023/07/29 05:08:21;;;;;;;3.42;1.67;;;18.20;99.90;;;;;;4954496;28;20418;-78
2023/07/29 05:10:50;;;;;;;2.92;2.10;;;18.20;99.90;;;;;;4960233;28;20031;-78
2023/07/29 05:13:17;;;;;;;3.35;2.10;;;18.20;99.90;;;;;;4956420;28;20026;-78
2023/07/29 05:15:42;;;;;;;8.02;1.90;;;18.20;99.90;;;;;;4957250;28;20078;-78
2023/07/29 05:18:08;;;;;;;3.05;1.55;;;18.00;99.90;;;;;;4952743;28;20027;-79
2023/07/29 05:20:33;;;;;;;3.78;1.40;;;17.90;99.90;;;;;;4961102;28;20031;-78
2023/07/29 05:22:59;;;;;;;2.22;1.50;;;17.90;99.90;;;;;;4956090;28;20042;-78
2023/07/29 05:25:24;;;;;;;2.88;1.40;;;17.80;99.90;;;;;;4955844;28;20024;-77
2023/07/29 05:27:50;;;;;;;3.20;1.38;;;17.80;99.90;;;;;;4950690;28;20501;-73
2023/07/29 05:30:16;;;;;;;3.63;1.83;;;17.90;99.90;;;;;;4950477;28;20023;-74
2023/07/29 05:32:41;;;;;;;2.50;1.13;;;17.80;99.90;;;;;;4949991;28;20031;-76
2023/07/29 05:35:07;;;;;;;3.85;1.60;;;17.90;99.90;;;;;;4948215;28;20035;-73
2023/07/29 05:37:32;;;;;;;3.20;1.20;;;17.90;99.90;;;;;;4946698;28;20046;-72
2023/07/29 05:39:59;;;;;;;4.50;1.40;;;18.00;99.90;;;;;;4951894;28;20091;-72
2023/07/29 05:42:24;;;;;;;5.90;1.42;;;18.00;99.90;;;;;;4948863;28;20490;-73
2023/07/29 05:44:50;;;;;;;3.92;1.45;;;18.10;99.90;;;;;;4949458;28;20046;-75
2023/07/29 05:47:15;;;;;;;1.95;1.20;;;18.10;99.90;;;;;;4947341;28;20082;-74
2023/07/29 05:49:41;;;;;;;3.63;1.40;;;18.20;99.90;;;;;;4950953;28;20026;-75
2023/07/29 05:52:07;;;;;;;4.10;1.05;;;18.30;99.90;;;;;;4949621;28;20397;-76
2023/07/29 05:54:33;;;;;;;4.40;1.10;;;18.40;99.90;;;;;;4950367;28;20039;-78
2023/07/29 05:56:58;;;;;;;2.38;1.13;;;18.40;99.90;;;;;;4951647;28;20035;-76
2023/07/29 05:59:24;;;;;;;3.72;1.20;;;18.50;99.90;;;;;;4944889;28;20401;-76
2023/07/29 06:01:49;;;;;;;3.05;1.27;;;18.60;99.90;;;;;;4951778;28;20066;-76
2023/07/29 06:04:15;;;;;;;1.63;1.10;;;18.70;99.90;;;;;;4951452;28;20051;-74
2023/07/29 06:06:41;;;;;;;3.15;1.10;;;18.80;99.90;;;;;;4955657;28;20023;-74
2023/07/29 06:09:06;;;;;;;1.92;1.08;;;18.90;99.90;;;;;;4951806;28;20042;-76
2023/07/29 06:11:32;;;;;;;2.10;1.20;;;19.00;99.90;;;;;;4949872;28;20122;-75
2023/07/29 06:13:57;;;;;;;4.55;1.30;;;19.10;99.90;;;;;;4952760;28;20028;-75
2023/07/29 06:16:23;;;;;;;1.85;1.30;;;19.20;99.90;;;;;;4952050;28;20123;-75
2023/07/29 06:18:49;;;;;;;3.28;1.30;;;19.30;99.90;;;;;;4957499;28;20078;-77
2023/07/29 06:21:17;;;;;;;3.58;1.30;;;19.30;99.90;;;;;;4959397;28;20035;-79
2023/07/29 06:23:43;;;;;;;2.85;1.33;;;19.40;99.90;;;;;;4964538;28;20027;-80
2023/07/29 06:26:09;;;;;;;2.85;1.58;;;19.40;99.90;;;;;;4965577;28;20102;-79
2023/07/29 06:28:34;;;;;;;3.58;1.17;;;19.50;99.90;;;;;;4961814;28;20035;-80
2023/07/29 06:31:00;;;;;;;3.30;1.23;;;19.50;99.90;;;;;;4960798;28;20030;-80
2023/07/29 06:33:26;;;;;;;3.22;1.30;;;19.60;99.90;;;;;;4965277;28;20029;-78
2023/07/29 06:35:52;;;;;;;1.98;1.10;;;19.60;99.90;;;;;;4963858;28;20027;-80
2023/07/29 06:38:21;;;;;;;2.90;1.38;;;19.60;99.90;;;;;;4965516;28;20070;-80
2023/07/29 06:40:50;;;;;;;3.90;1.20;;;19.70;99.90;;;;;;4959790;28;20023;-79
2023/07/29 06:43:16;;;;;;;3.65;1.55;;;19.80;99.90;;;;;;4962980;28;20114;-78
2023/07/29 06:45:42;;;;;;;3.72;1.50;;;19.80;99.90;;;;;;4962966;28;20070;-79
2023/07/29 06:48:07;;;;;;;1.70;1.17;;;19.90;99.90;;;;;;4963773;28;20034;-78
2023/07/29 06:50:33;;;;;;;1.58;1.10;;;20.00;99.90;;;;;;4961575;28;20031;-79
2023/07/29 06:52:58;;;;;;;3.08;1.10;;;20.00;99.90;;;;;;4964030;28;20019;-78
2023/07/29 06:55:24;;;;;;;1.73;1.20;;;20.10;99.90;;;;;;4958747;28;20039;-79
2023/07/29 06:57:49;;;;;;;3.92;1.48;;;20.10;99.90;;;;;;4963579;28;20050;-78
2023/07/29 07:00:15;;;;;;;5.18;1.83;;;20.10;99.90;;;;;;4965177;28;20116;-77
2023/07/29 07:02:41;;;;;;;4.30;1.67;;;20.10;99.90;;;;;;4959239;28;20026;-78
2023/07/29 07:05:07;;;;;;;1.95;1.15;;;20.10;99.90;;;;;;4961070;28;20023;-78
2023/07/29 07:07:32;;;;;;;4.50;1.48;;;20.00;99.90;;;;;;4962567;28;20045;-77
2023/07/29 07:09:58;;;;;;;3.00;1.23;;;19.90;99.90;;;;;;4964912;28;20046;-77
2023/07/29 07:12:24;;;;;;;6.93;1.88;;;19.80;99.90;;;;;;4959913;28;20493;-78
2023/07/29 07:14:49;;;;;;;5.00;1.50;;;19.80;99.90;;;;;;4958601;29;20050;-78
2023/07/29 07:17:15;;;;;;;2.55;1.35;;;19.60;99.90;;;;;;4960366;28;20042;-78
2023/07/29 07:19:41;;;;;;;2.35;1.08;;;19.50;99.90;;;;;;4958551;28;20027;-77
2023/07/29 07:22:07;;;;;;;4.57;1.98;;;19.50;99.90;;;;;;4964861;28;20026;-77
2023/07/29 07:24:32;;;;;;;4.55;1.70;;;19.40;99.90;;;;;;4961833;28;20039;-79
2023/07/29 07:26:58;;;;;;;4.18;1.80;;;19.30;99.90;;;;;;4966147;28;20390;-79
2023/07/29 07:29:24;;;;;;;3.47;1.73;;;19.40;99.90;;;;;;4966411;28;20024;-78
2023/07/29 07:31:53;;;;;;;3.70;1.60;;;19.30;99.90;;;;;;4963845;28;20019;-78
2023/07/29 07:34:20;;;;;;;4.20;1.65;;;19.30;99.90;;;;;;4963050;28;20059;-78
2023/07/29 07:36:46;;;;;;;2.35;1.35;;;19.30;99.90;;;;;;4960594;28;20499;-80
2023/07/29 07:39:12;;;;;;;4.60;1.75;;;19.30;99.90;;;;;;4957874;28;20050;-78
2023/07/29 07:41:38;;;;;;;4.93;2.03;;;19.30;99.90;;;;;;4959757;28;20040;-78
2023/07/29 07:44:04;;;;;;;3.35;1.75;;;19.30;99.90;;;;;;4958177;28;20051;-77
2023/07/29 07:46:29;;;;;;;2.30;1.58;;;19.40;99.90;;;;;;4959333;28;20154;-78
2023/07/29 07:48:55;;;;;;;6.10;2.03;;;19.40;99.90;;;;;;4961971;28;20023;-79
2023/07/29 07:51:21;;;;;;;3.72;1.77;;;19.40;99.90;;;;;;4962657;28;20027;-78
2023/07/29 07:53:46;;;;;;;6.05;2.05;;;19.40;99.90;;;;;;4962067;28;20020;-78
2023/07/29 07:56:12;;;;;;;3.33;1.65;;;19.50;99.90;;;;;;4962786;28;20027;-78
2023/07/29 07:58:38;;;;;;;1.98;1.40;;;19.50;99.90;;;;;;4958739;28;20062;-77
2023/07/29 08:01:05;;;;;;;2.97;1.52;;;19.50;99.90;;;;;;4958943;28;20065;-79
2023/07/29 08:03:31;;;;;;;3.05;1.60;;;19.60;99.90;;;;;;4959057;28;20039;-79
2023/07/29 08:05:56;;;;;;;3.70;1.55;;;19.60;99.90;;;;;;4959469;28;20039;-79
2023/07/29 08:08:22;;;;;;;3.03;1.20;;;19.60;99.90;;;;;;4962084;28;20027;-79
2023/07/29 08:10:48;;;;;;;5.22;1.55;;;19.60;99.90;;;;;;4961043;28;20091;-79
2023/07/29 08:13:13;;;;;;;2.00;1.58;;;19.60;99.90;;;;;;4961113;28;20109;-78
2023/07/29 08:15:40;;;;;;;2.40;1.20;;;19.70;99.90;;;;;;4961995;28;20134;-78
2023/07/29 08:18:06;;;;;;;2.55;1.63;;;19.70;99.90;;;;;;4959927;28;20023;-78
2023/07/29 08:20:32;;;;;;;3.10;1.42;;;19.80;99.90;;;;;;4963594;28;20023;-77
2023/07/29 08:22:58;;;;;;;2.78;1.23;;;19.80;99.90;;;;;;4958793;28;20426;-77
2023/07/29 08:25:24;;;;;;;2.00;1.15;;;19.80;99.90;;;;;;4961671;28;20039;-77
2023/07/29 08:27:49;;;;;;;1.85;1.23;;;19.80;99.90;;;;;;4961854;28;20029;-78
2023/07/29 08:30:16;;;;;;;3.78;2.20;;;19.90;99.90;;;;;;4958350;28;20094;-78
2023/07/29 08:32:41;;;;;;;1.95;1.48;;;19.80;99.90;;;;;;4966940;28;20026;-78
2023/07/29 08:35:07;;;;;;;2.55;1.70;;;19.90;99.90;;;;;;4972233;28;20050;-78
2023/07/29 08:37:33;;;;;;;2.67;1.58;;;19.90;99.90;;;;;;4960735;28;20040;-78
2023/07/29 08:39:59;;;;;;;2.20;1.33;;;19.90;99.90;;;;;;4961372;28;20031;-77
2023/07/29 08:42:30;;;;;;;4.60;2.00;;;19.90;99.90;;;;;;4962698;28;20031;-78
2023/07/29 08:45:01;;;;;;;3.35;1.60;;;19.90;99.90;;;;;;4950872;28;20035;-77
2023/07/29 08:47:27;;;;;;;2.67;1.90;;;19.90;99.90;;;;;;4950460;28;20055;-76
2023/07/29 08:49:56;;;;;;;3.35;2.13;;;19.80;99.90;;;;;;4950236;28;20417;-77
2023/07/29 08:52:22;;;;;;;4.15;2.58;;;19.80;99.90;;;;;;4951278;28;20051;-78
2023/07/29 08:54:48;;;;;;;5.25;1.90;;;19.80;99.90;;;;;;4947964;28;20637;-78
2023/07/29 08:57:15;;;;;;;4.50;2.05;;;19.70;99.90;;;;;;4949798;28;20027;-77
2023/07/29 08:59:41;;;;;;;3.65;2.08;;;19.70;99.90;;;;;;4948782;28;20063;-77
2023/07/29 09:02:07;;;;;;;2.50;1.70;;;19.70;99.90;;;;;;4951587;28;20038;-77
2023/07/29 09:04:32;;;;;;;3.88;1.98;;;19.80;99.90;;;;;;4950341;28;20639;-79
2023/07/29 09:06:59;;;;;;;2.78;1.85;;;19.80;99.90;;;;;;4949001;28;20047;-77
2023/07/29 09:09:25;;;;;;;4.78;2.38;;;20.00;99.90;;;;;;4949467;28;20067;-77
2023/07/29 09:11:51;;;;;;;3.95;1.80;;;20.10;99.90;;;;;;4950168;28;20031;-77
2023/07/29 09:14:16;;;;;;;4.90;2.05;;;20.20;99.90;;;;;;4945393;28;20520;-77
2023/07/29 09:16:43;;;;;;;3.58;2.03;;;20.30;99.90;;;;;;4948054;28;20047;-77
2023/07/29 09:19:08;;;;;;;3.80;1.75;;;20.40;99.90;;;;;;4948907;28;20513;-76
2023/07/29 09:21:38;;;;;;;3.85;2.55;;;20.50;99.90;;;;;;4948426;28;20074;-76
2023/07/29 09:24:04;;;;;;;4.57;1.90;;;20.60;99.90;;;;;;4949472;28;20035;-76
2023/07/29 09:26:31;;;;;;;3.20;1.90;;;20.70;99.90;;;;;;4951030;28;20430;-77
2023/07/29 09:28:58;;;;;;;4.80;1.88;;;20.80;99.90;;;;;;4947164;28;20135;-77
2023/07/29 09:31:26;;;;;;;2.67;1.77;;;21.00;99.90;;;;;;4950169;28;20038;-77
2023/07/29 09:34:03;;;;;;;3.38;1.70;;;21.10;99.90;;;;;;4947908;28;20035;-77
2023/07/29 09:36:31;;;;;;;4.22;2.05;;;21.30;99.90;;;;;;4947066;28;20382;-77
2023/07/29 09:38:58;;;;;;;3.35;1.98;;;21.50;99.90;;;;;;4951636;28;20069;-76
2023/07/29 09:41:28;;;;;;;2.63;2.00;;;21.60;99.90;;;;;;4949305;28;20047;-77
2023/07/29 09:44:04;;;;;;;2.78;1.77;;;21.70;99.90;;;;;;4944318;28;22523;-77
2023/07/29 09:46:37;;;;;;;7.65;1.95;;;21.90;99.90;;;;;;4948048;28;20027;-77
2023/07/29 09:49:04;;;;;;;4.35;2.10;;;22.00;99.90;;;;;;4949660;28;20514;-78
2023/07/29 09:51:30;;;;;;;3.75;2.08;;;22.10;99.90;;;;;;4947524;28;20043;-77
2023/07/29 09:53:55;;;;;;;3.33;1.92;;;22.20;99.90;;;;;;4949451;28;20023;-77
2023/07/29 09:56:27;;;;;;;3.55;1.58;;;22.30;99.90;;;;;;4946944;28;20054;-78
2023/07/29 09:58:55;;;;;;;2.22;1.55;;;22.50;99.90;;;;;;4949181;28;20027;-78
2023/07/29 10:01:21;;;;;;;4.22;1.85;;;22.60;99.90;;;;;;4950685;28;20065;-78
2023/07/29 10:03:48;;;;;;;2.35;1.67;;;22.70;99.90;;;;;;4950188;28;20067;-77
2023/07/29 10:06:16;;;;;;;3.10;1.45;;;22.80;99.90;;;;;;4945965;28;20489;-77
2023/07/29 10:08:43;;;;;;;2.83;1.63;;;22.90;99.90;;;;;;4948760;28;20020;-77
2023/07/29 10:11:10;;;;;;;2.13;1.60;;;23.10;99.90;;;;;;4947903;28;20488;-75
2023/07/29 10:13:36;;;;;;;2.45;1.90;;;23.20;99.90;;;;;;4947266;28;20031;-77
2023/07/29 10:16:03;;;;;;;1.85;1.55;;;23.40;99.90;;;;;;4965059;28;20489;-77
2023/07/29 10:18:30;;;;;;;2.67;1.95;;;23.50;99.90;;;;;;4946734;28;20035;-78
2023/07/29 10:20:58;;;;;;;4.28;2.20;;;23.60;99.90;;;;;;4949228;28;20417;-77
2023/07/29 10:23:26;;;;;;;2.88;1.90;;;23.60;99.90;;;;;;4948936;28;20050;-78
2023/07/29 10:26:05;;;;;;;2.20;1.70;;;23.70;99.90;;;;;;4945255;28;20035;-77
2023/07/29 10:28:32;;;;;;;2.17;1.70;;;23.90;99.90;;;;;;4948802;28;20042;-77
2023/07/29 10:30:58;;;;;;;2.10;1.70;;;23.90;99.90;;;;;;4949642;28;20027;-77
2023/07/29 10:33:24;;;;;;;2.10;1.30;;;24.00;99.90;;;;;;4950536;28;20510;-77
2023/07/29 10:35:51;;;;;;;2.83;1.60;;;24.10;99.90;;;;;;4947248;28;20283;-78
2023/07/29 10:38:18;;;;;;;3.50;2.03;;;24.10;99.90;;;;;;4943998;28;20110;-78
2023/07/29 10:40:51;;;;;;;1.98;1.50;;;24.20;99.90;;;;;;4944422;28;20030;-78
2023/07/29 10:43:29;;;;;;;2.33;1.88;;;24.30;99.90;;;;;;4954652;28;20251;-78
2023/07/29 10:45:56;;;;;;;1.95;1.48;;;24.40;99.90;;;;;;4951783;28;20284;-77
2023/07/29 10:48:36;;;;;;;3.78;1.90;;;24.50;99.90;;;;;;4953794;28;20111;-77
2023/07/29 10:51:29;;;;;;;1.60;1.40;;;24.60;99.90;;;;;;4951647;28;20028;-77
2023/07/29 10:54:13;;;;;;;2.53;1.63;;;24.60;99.90;;;;;;4965913;28;20032;-76
2023/07/29 10:56:42;;;;;;;;;;;24.70;99.90;;;;;;4950307;28;20054;-77
2023/07/29 10:59:11;;;;;;;2.30;1.65;;;24.60;99.90;;;;;;4948114;28;19910;-77
2023/07/29 11:01:39;;;;;;;2.10;1.75;;;24.60;99.90;;;;;;4949702;28;20031;-77
2023/07/29 11:04:20;;;;;;;3.00;2.03;;;24.70;99.90;;;;;;4940079;28;20035;-77
2023/07/29 11:07:07;;;;;;;2.65;1.33;;;24.80;99.90;;;;;;4950980;28;20087;-77
2023/07/29 11:09:51;;;;;;;3.40;1.75;;;24.80;99.90;;;;;;4945493;28;20031;-77
2023/07/29 11:12:51;;;;;;;1.90;1.58;;;24.90;99.90;;;;;;4942885;28;20173;-77
2023/07/29 11:15:22;;;;;;;4.93;1.70;;;25.00;99.90;;;;;;4949154;28;20027;-76
2023/07/29 11:17:51;;;;;;;2.33;1.77;;;25.00;99.90;;;;;;4943474;28;20024;-78
2023/07/29 11:20:19;;;;;;;3.25;1.83;;;25.00;99.90;;;;;;4949651;28;20023;-77
2023/07/29 11:22:45;;;;;;;2.97;1.85;;;25.00;99.90;;;;;;4947802;28;20023;-77
2023/07/29 11:25:13;;;;;;;2.97;1.65;;;25.10;99.90;;;;;;4951563;28;20023;-76
2023/07/29 11:27:40;;;;;;;1.92;1.30;;;25.20;99.90;;;;;;4948301;28;20023;-76
2023/07/29 11:30:11;;;;;;;2.75;2.00;;;25.20;99.90;;;;;;4947561;28;20027;-76
2023/07/29 11:32:38;;;;;;;4.30;1.85;;;25.20;99.90;;;;;;4947334;28;20034;-77
2023/07/29 11:35:07;;;;;;;2.35;1.75;;;25.10;99.90;;;;;;4947307;28;20035;-77
2023/07/29 11:37:33;;;;;;;3.30;1.60;;;25.00;99.90;;;;;;4942776;28;20028;-76
2023/07/29 11:39:59;;;;;;;2.50;1.77;;;25.00;99.90;;;;;;4952538;28;20451;-77
2023/07/29 11:42:27;;;;;;;2.00;1.45;;;24.90;99.90;;;;;;4951167;28;20099;-76
2023/07/29 11:44:53;;;;;;;5.28;1.60;;;24.80;99.90;;;;;;4948394;28;20038;-76
2023/07/29 11:47:19;;;;;;;2.33;1.80;;;24.80;99.90;;;;;;4949405;28;20031;-77
2023/07/29 11:49:45;;;;;;;2.47;1.42;;;24.70;99.90;;;;;;4948712;28;20126;-77
2023/07/29 11:52:11;;;;;;;2.15;1.50;;;24.70;99.90;;;;;;4954267;28;20506;-77
2023/07/29 11:54:38;;;;;;;1.42;1.30;;;24.60;99.90;;;;;;4949089;28;20024;-77
2023/07/29 11:57:08;;;;;;;1.83;1.23;;;24.60;99.90;;;;;;4949922;28;20039;-77
2023/07/29 11:59:37;;;;;;;2.50;1.58;;;24.50;99.90;;;;;;4948871;28;20114;-76
2023/07/29 12:02:12;;;;;;;2.78;1.38;;;24.50;99.90;;;;;;4948841;28;20123;-76
2023/07/29 12:04:39;;;;;;;3.50;1.77;;;24.50;99.90;;;;;;4952963;28;20028;-77
2023/07/29 12:07:05;;;;;;;1.83;1.48;;;24.40;99.90;;;;;;4950097;28;20081;-76
2023/07/29 12:09:31;;;;;;;1.38;1.10;;;24.50;99.90;;;;;;4955576;28;20431;-76
2023/07/29 12:12:01;;;;;;;2.42;1.17;;;24.40;99.90;;;;;;4968938;28;20481;-77
2023/07/29 12:14:29;;;;;;;2.10;1.90;;;24.50;99.90;;;;;;4954936;28;20382;-76
2023/07/29 12:17:03;;;;;;;1.95;1.50;;;24.40;99.90;;;;;;4953200;28;20026;-77
2023/07/29 12:19:36;;;;;;;1.35;1.20;;;24.50;99.90;;;;;;4956371;28;20035;-77
2023/07/29 12:22:03;;;;;;;2.08;1.27;;;24.50;99.90;;;;;;4951314;28;20023;-77
2023/07/29 12:24:34;;;;;;;2.10;1.23;;;24.60;99.90;;;;;;4950359;28;20403;-76
2023/07/29 12:27:00;;;;;;;2.20;1.10;;;24.60;99.90;;;;;;4955510;28;20126;-77
2023/07/29 12:29:29;;;;;;;2.20;1.10;;;24.70;99.90;;;;;;4955613;28;20063;-77
2023/07/29 12:32:03;;;;;;;2.47;1.70;;;24.70;99.90;;;;;;4955680;28;20059;-78
2023/07/29 12:34:31;;;;;;;2.80;1.45;;;24.70;99.90;;;;;;4947224;28;20019;-76
2023/07/29 12:36:58;;;;;;;2.92;1.60;;;24.80;99.90;;;;;;4952144;28;20019;-76
2023/07/29 12:39:30;;;;;;;2.20;1.60;;;24.80;99.90;;;;;;4951824;28;20024;-77
2023/07/29 12:41:58;;;;;;;1.85;1.50;;;24.90;99.90;;;;;;4955678;28;20406;-77
2023/07/29 12:44:24;;;;;;;2.60;1.52;;;24.90;99.90;;;;;;4953922;28;20383;-77
2023/07/29 12:46:50;;;;;;;2.03;1.50;;;25.00;99.90;;;;;;4954170;28;20027;-78
2023/07/29 12:49:16;;;;;;;2.67;1.52;;;25.00;99.90;;;;;;4955455;28;20031;-77